createdAt,value
2018-08-30T00:00:53.868Z,42.50
2018-08-30T00:01:53.731Z,42.80
2018-08-30T00:02:53.713Z,43.70
2018-08-30T00:03:53.741Z,43.80
2018-08-30T00:04:53.690Z,42.20
2018-08-30T00:05:53.676Z,40.70
2018-08-30T00:06:53.654Z,39.80
2018-08-30T00:07:53.649Z,38.10
2018-08-30T00:08:53.624Z,37.90
2018-08-30T00:09:53.606Z,36.80
2018-08-30T00:10:53.593Z,37.00
2018-08-30T00:11:53.578Z,36.80
2018-08-30T00:12:53.566Z,34.90
2018-08-30T00:13:53.546Z,32.40
2018-08-30T00:14:53.537Z,30.00
2018-08-30T00:15:53.516Z,32.10
2018-08-30T00:16:53.517Z,29.30
2018-08-30T00:17:53.486Z,30.40
2018-08-30T00:18:53.473Z,29.10
2018-08-30T00:19:53.568Z,30.40
2018-08-30T00:20:53.442Z,30.00
2018-08-30T00:21:53.440Z,28.40
2018-08-30T00:22:53.418Z,28.50
2018-08-30T00:23:53.411Z,29.30
2018-08-30T00:24:53.387Z,25.70
2018-08-30T00:25:53.366Z,23.70
2018-08-30T00:26:53.352Z,23.70
2018-08-30T00:27:53.332Z,23.70
2018-08-30T00:28:53.325Z,24.80
2018-08-30T00:29:53.309Z,24.00
2018-08-30T00:30:53.287Z,24.90
2018-08-30T00:31:53.271Z,23.60
2018-08-30T00:32:53.276Z,23.90
2018-08-30T00:33:53.244Z,23.50
2018-08-30T00:34:53.226Z,20.60
2018-08-30T00:35:53.217Z,21.20
2018-08-30T00:36:53.196Z,22.00
2018-08-30T00:37:53.182Z,22.40
2018-08-30T00:38:53.163Z,23.70
2018-08-30T00:39:53.158Z,22.20
2018-08-30T00:40:53.133Z,19.00
2018-08-30T00:41:53.129Z,20.70
2018-08-30T00:42:53.101Z,20.60
2018-08-30T00:43:53.199Z,20.30
2018-08-30T00:44:53.082Z,20.40
2018-08-30T00:45:53.056Z,18.50
2018-08-30T00:46:53.151Z,15.40
2018-08-30T00:47:53.033Z,14.30
2018-08-30T00:48:53.009Z,13.70
2018-08-30T00:49:52.996Z,12.60
2018-08-30T00:50:52.977Z,11.50
2018-08-30T00:51:52.972Z,11.90
2018-08-30T00:52:52.948Z,12.40
2018-08-30T00:53:52.944Z,12.10
2018-08-30T00:54:52.919Z,12.00
2018-08-30T00:55:52.903Z,12.50
2018-08-30T00:56:52.888Z,11.90
2018-08-30T00:57:52.868Z,11.00
2018-08-30T00:58:52.855Z,10.30
2018-08-30T00:59:52.839Z,11.10
2018-08-30T01:00:52.823Z,11.80
2018-08-30T01:01:52.810Z,10.70
2018-08-30T01:02:53.093Z,10.60
2018-08-30T01:03:52.777Z,11.20
2018-08-30T01:04:52.760Z,10.70
2018-08-30T01:05:52.801Z,11.50
2018-08-30T01:06:52.729Z,10.90
2018-08-30T01:07:52.713Z,11.10
2018-08-30T01:08:52.768Z,10.80
2018-08-30T01:09:52.683Z,11.00
2018-08-30T01:10:52.665Z,10.70
2018-08-30T01:11:52.653Z,10.80
2018-08-30T01:12:52.646Z,11.00
2018-08-30T01:13:52.633Z,11.00
2018-08-30T01:14:52.603Z,10.70
2018-08-30T01:15:52.588Z,11.70
2018-08-30T01:16:52.569Z,11.50
2018-08-30T01:17:52.557Z,11.50
2018-08-30T01:18:52.539Z,11.40
2018-08-30T01:19:52.525Z,12.10
2018-08-30T01:20:52.509Z,11.60
2018-08-30T01:21:52.492Z,12.50
2018-08-30T01:22:52.481Z,13.10
2018-08-30T01:23:52.460Z,12.50
2018-08-30T01:24:52.447Z,13.60
2018-08-30T01:25:52.429Z,13.80
2018-08-30T01:26:52.416Z,14.50
2018-08-30T01:27:52.407Z,13.60
2018-08-30T01:28:52.387Z,13.80
2018-08-30T01:29:52.380Z,13.20
2018-08-30T01:30:52.350Z,14.70
2018-08-30T01:31:52.336Z,14.50
2018-08-30T01:32:52.369Z,14.30
2018-08-30T01:33:52.305Z,14.40
2018-08-30T01:34:52.288Z,15.40
2018-08-30T01:35:52.272Z,15.10
2018-08-30T01:36:52.254Z,15.20
2018-08-30T01:37:52.240Z,16.50
2018-08-30T01:38:52.225Z,15.80
2018-08-30T01:39:52.213Z,16.60
2018-08-30T01:40:52.194Z,16.70
2018-08-30T01:41:52.182Z,15.90
2018-08-30T01:42:52.159Z,17.40
2018-08-30T01:43:52.153Z,17.30
2018-08-30T01:44:52.132Z,15.90
2018-08-30T01:45:52.114Z,16.60
2018-08-30T01:46:52.100Z,16.50
2018-08-30T01:47:52.084Z,18.20
2018-08-30T01:48:52.075Z,16.40
2018-08-30T01:49:52.049Z,17.40
2018-08-30T01:50:52.034Z,18.00
2018-08-30T01:51:52.025Z,19.00
2018-08-30T01:52:52.005Z,17.50
2018-08-30T01:53:51.989Z,17.40
2018-08-30T01:54:51.979Z,17.60
2018-08-30T01:55:51.957Z,17.60
2018-08-30T01:56:51.939Z,18.70
2018-08-30T01:57:51.926Z,18.90
2018-08-30T01:58:51.911Z,18.00
2018-08-30T01:59:51.897Z,19.80
2018-08-30T02:00:51.876Z,19.40
2018-08-30T02:01:51.869Z,19.10
2018-08-30T02:02:51.848Z,19.20
2018-08-30T02:03:51.833Z,19.50
2018-08-30T02:04:51.939Z,19.50
2018-08-30T02:05:51.801Z,19.30
2018-08-30T02:06:51.783Z,20.00
2018-08-30T02:07:51.875Z,19.40
2018-08-30T02:08:51.760Z,20.60
2018-08-30T02:09:51.751Z,20.50
2018-08-30T02:10:51.773Z,20.40
2018-08-30T02:11:51.705Z,20.40
2018-08-30T02:12:51.686Z,20.60
2018-08-30T02:13:51.678Z,20.00
2018-08-30T02:14:51.658Z,21.10
2018-08-30T02:15:51.745Z,21.10
2018-08-30T02:16:51.637Z,21.50
2018-08-30T02:17:51.618Z,21.60
2018-08-30T02:18:51.597Z,21.70
2018-08-30T02:19:51.580Z,20.80
2018-08-30T02:20:51.566Z,21.60
2018-08-30T02:21:51.549Z,22.10
2018-08-30T02:22:51.533Z,22.30
2018-08-30T02:23:51.516Z,22.40
2018-08-30T02:24:51.508Z,22.10
2018-08-30T02:25:51.492Z,22.20
2018-08-30T02:26:51.472Z,21.40
2018-08-30T02:27:51.454Z,22.30
2018-08-30T02:28:51.437Z,22.80
2018-08-30T02:29:51.425Z,23.20
2018-08-30T02:30:51.416Z,22.60
2018-08-30T02:31:51.533Z,23.00
2018-08-30T02:32:51.385Z,23.80
2018-08-30T02:33:51.365Z,23.80
2018-08-30T02:34:51.388Z,23.70
2018-08-30T02:35:51.331Z,23.30
2018-08-30T02:36:51.317Z,23.80
2018-08-30T02:37:51.303Z,23.90
2018-08-30T02:38:51.286Z,23.70
2018-08-30T02:39:51.275Z,23.60
2018-08-30T02:40:51.250Z,24.10
2018-08-30T02:41:51.232Z,23.30
2018-08-30T02:42:51.218Z,24.00
2018-08-30T02:43:51.204Z,24.60
2018-08-30T02:44:51.199Z,24.60
2018-08-30T02:45:51.172Z,24.40
2018-08-30T02:46:51.157Z,23.00
2018-08-30T02:47:51.144Z,23.80
2018-08-30T02:48:51.171Z,23.80
2018-08-30T02:49:51.121Z,23.30
2018-08-30T02:50:51.205Z,24.70
2018-08-30T02:51:51.081Z,23.80
2018-08-30T02:52:51.062Z,24.40
2018-08-30T02:53:51.048Z,24.30
2018-08-30T02:54:51.032Z,24.10
2018-08-30T02:55:51.027Z,24.50
2018-08-30T02:56:50.999Z,25.00
2018-08-30T02:57:50.988Z,25.00
2018-08-30T02:58:50.969Z,24.20
2018-08-30T02:59:50.953Z,24.70
2018-08-30T03:00:50.939Z,25.60
2018-08-30T03:01:50.921Z,25.60
2018-08-30T03:02:50.909Z,27.20
2018-08-30T03:03:50.891Z,25.20
2018-08-30T03:04:50.878Z,25.40
2018-08-30T03:05:50.858Z,25.30
2018-08-30T03:06:50.844Z,24.90
2018-08-30T03:07:50.828Z,26.20
2018-08-30T03:08:50.811Z,25.80
2018-08-30T03:09:50.822Z,25.40
2018-08-30T03:10:50.780Z,25.50
2018-08-30T03:11:50.773Z,26.00
2018-08-30T03:12:50.754Z,26.30
2018-08-30T03:13:50.733Z,25.50
2018-08-30T03:14:50.721Z,26.30
2018-08-30T03:15:50.707Z,26.00
2018-08-30T03:16:50.688Z,26.40
2018-08-30T03:17:50.820Z,24.80
2018-08-30T03:18:50.658Z,26.40
2018-08-30T03:19:50.641Z,26.00
2018-08-30T03:20:50.664Z,25.00
2018-08-30T03:21:50.608Z,26.00
2018-08-30T03:22:50.592Z,26.80
2018-08-30T03:23:50.579Z,25.60
2018-08-30T03:24:50.582Z,25.00
2018-08-30T03:25:50.547Z,25.20
2018-08-30T03:26:50.531Z,25.50
2018-08-30T03:27:50.517Z,25.40
2018-08-30T03:28:50.500Z,25.20
2018-08-30T03:29:50.487Z,26.50
2018-08-30T03:30:50.538Z,26.40
2018-08-30T03:31:50.457Z,25.50
2018-08-30T03:32:50.436Z,24.30
2018-08-30T03:33:50.555Z,25.50
2018-08-30T03:34:50.406Z,25.40
2018-08-30T03:35:50.389Z,25.00
2018-08-30T03:36:50.375Z,24.50
2018-08-30T03:37:50.357Z,24.90
2018-08-30T03:38:50.345Z,25.60
2018-08-30T03:39:50.327Z,24.60
2018-08-30T03:40:50.310Z,25.70
2018-08-30T03:41:50.294Z,25.10
2018-08-30T03:42:50.278Z,24.70
2018-08-30T03:43:50.268Z,25.00
2018-08-30T03:44:50.246Z,25.70
2018-08-30T03:45:50.238Z,25.60
2018-08-30T03:46:50.232Z,24.20
2018-08-30T03:47:50.200Z,24.80
2018-08-30T03:48:50.182Z,24.50
2018-08-30T03:49:50.170Z,25.00
2018-08-30T03:50:50.153Z,25.10
2018-08-30T03:51:50.137Z,24.70
2018-08-30T03:52:50.196Z,25.80
2018-08-30T03:53:50.107Z,24.60
2018-08-30T03:54:50.089Z,25.20
2018-08-30T03:55:50.077Z,25.60
2018-08-30T03:56:50.059Z,26.20
2018-08-30T03:57:50.051Z,24.60
2018-08-30T03:58:50.027Z,24.30
2018-08-30T03:59:50.011Z,25.60
2018-08-30T04:00:50.023Z,25.60
2018-08-30T04:01:49.978Z,24.20
2018-08-30T04:02:49.963Z,25.50
2018-08-30T04:03:49.949Z,25.30
2018-08-30T04:04:49.932Z,25.70
2018-08-30T04:05:49.926Z,25.10
2018-08-30T04:06:49.903Z,25.60
2018-08-30T04:07:49.885Z,25.80
2018-08-30T04:08:49.867Z,25.70
2018-08-30T04:09:49.874Z,25.10
2018-08-30T04:10:49.844Z,25.50
2018-08-30T04:11:49.821Z,24.80
2018-08-30T04:12:49.803Z,25.10
2018-08-30T04:13:49.790Z,24.20
2018-08-30T04:14:49.779Z,25.30
2018-08-30T04:15:49.756Z,25.40
2018-08-30T04:16:49.746Z,24.60
2018-08-30T04:17:49.726Z,26.10
2018-08-30T04:18:49.712Z,25.00
2018-08-30T04:19:49.737Z,25.00
2018-08-30T04:20:49.680Z,24.90
2018-08-30T04:21:49.716Z,25.20
2018-08-30T04:22:49.651Z,25.00
2018-08-30T04:23:49.633Z,24.70
2018-08-30T04:24:49.616Z,25.50
2018-08-30T04:25:49.600Z,24.80
2018-08-30T04:26:49.585Z,24.40
2018-08-30T04:27:49.584Z,25.30
2018-08-30T04:28:49.553Z,24.30
2018-08-30T04:29:49.536Z,25.10
2018-08-30T04:30:49.522Z,24.90
2018-08-30T04:31:49.509Z,24.10
2018-08-30T04:32:49.490Z,24.30
2018-08-30T04:33:49.479Z,24.90
2018-08-30T04:34:49.464Z,24.10
2018-08-30T04:35:49.515Z,23.70
2018-08-30T04:36:49.424Z,25.40
2018-08-30T04:37:49.411Z,24.30
2018-08-30T04:38:49.401Z,25.10
2018-08-30T04:39:49.381Z,24.70
2018-08-30T04:40:49.365Z,24.90
2018-08-30T04:41:49.351Z,25.70
2018-08-30T04:42:49.388Z,23.50
2018-08-30T04:43:49.323Z,24.30
2018-08-30T04:44:49.304Z,24.40
2018-08-30T04:45:49.290Z,25.20
2018-08-30T04:46:49.319Z,25.90
2018-08-30T04:47:49.254Z,26.30
2018-08-30T04:48:49.238Z,26.80
2018-08-30T04:49:49.231Z,26.70
2018-08-30T04:50:49.204Z,26.60
2018-08-30T04:51:49.188Z,26.30
2018-08-30T04:52:49.183Z,27.10
2018-08-30T04:53:49.163Z,26.60
2018-08-30T04:54:49.140Z,26.50
2018-08-30T04:55:49.127Z,26.50
2018-08-30T04:56:49.107Z,26.70
2018-08-30T04:57:49.097Z,26.00
2018-08-30T04:58:49.077Z,25.90
2018-08-30T04:59:49.062Z,26.10
2018-08-30T05:00:49.049Z,25.90
2018-08-30T05:01:49.122Z,27.30
2018-08-30T05:02:49.120Z,26.00
2018-08-30T05:03:48.999Z,26.20
2018-08-30T05:04:48.994Z,26.50
2018-08-30T05:05:49.025Z,26.30
2018-08-30T05:06:48.961Z,25.50
2018-08-30T05:07:48.937Z,26.50
2018-08-30T05:08:48.919Z,26.70
2018-08-30T05:09:48.904Z,26.60
2018-08-30T05:10:48.889Z,27.10
2018-08-30T05:11:48.874Z,27.00
2018-08-30T05:12:48.857Z,28.00
2018-08-30T05:13:48.839Z,27.60
2018-08-30T05:14:48.840Z,28.00
2018-08-30T05:15:48.811Z,26.40
2018-08-30T05:16:48.792Z,26.20
2018-08-30T05:17:48.778Z,26.00
2018-08-30T05:18:48.770Z,26.30
2018-08-30T05:19:48.746Z,26.80
2018-08-30T05:20:48.731Z,27.00
2018-08-30T05:21:48.848Z,26.80
2018-08-30T05:22:48.703Z,26.60
2018-08-30T05:23:48.688Z,25.90
2018-08-30T05:24:48.676Z,25.70
2018-08-30T05:25:48.656Z,25.30
2018-08-30T05:26:48.636Z,25.20
2018-08-30T05:27:48.618Z,24.70
2018-08-30T05:28:48.610Z,26.00
2018-08-30T05:29:48.682Z,25.70
2018-08-30T05:30:48.570Z,24.70
2018-08-30T05:31:48.555Z,24.40
2018-08-30T05:32:48.541Z,24.40
2018-08-30T05:33:48.525Z,24.60
2018-08-30T05:34:48.510Z,24.70
2018-08-30T05:35:48.602Z,24.80
2018-08-30T05:36:48.483Z,24.90
2018-08-30T05:37:48.465Z,24.60
2018-08-30T05:38:48.445Z,24.60
2018-08-30T05:39:48.429Z,23.60
2018-08-30T05:40:48.415Z,23.10
2018-08-30T05:41:48.402Z,23.20
2018-08-30T05:42:48.386Z,22.30
2018-08-30T05:43:48.368Z,22.40
2018-08-30T05:44:48.425Z,23.00
2018-08-30T05:45:48.354Z,23.70
2018-08-30T05:46:48.324Z,22.90
2018-08-30T05:47:48.303Z,23.50
2018-08-30T05:48:48.386Z,23.10
2018-08-30T05:49:48.274Z,22.40
2018-08-30T05:50:48.262Z,23.70
2018-08-30T05:51:48.274Z,22.10
2018-08-30T05:52:48.226Z,22.90
2018-08-30T05:53:48.210Z,23.30
2018-08-30T05:54:48.197Z,22.20
2018-08-30T05:55:48.177Z,23.50
2018-08-30T05:56:48.223Z,23.40
2018-08-30T05:57:48.146Z,24.70
2018-08-30T05:58:48.134Z,21.80
2018-08-30T05:59:48.117Z,22.70
2018-08-30T06:00:48.102Z,22.40
2018-08-30T06:01:48.082Z,20.20
2018-08-30T06:02:48.076Z,20.80
2018-08-30T06:03:48.052Z,21.60
2018-08-30T06:04:48.112Z,23.20
2018-08-30T06:05:48.022Z,21.40
2018-08-30T06:06:48.008Z,21.90
2018-08-30T06:07:48.038Z,21.50
2018-08-30T06:08:47.982Z,20.50
2018-08-30T06:09:47.957Z,20.90
2018-08-30T06:10:47.944Z,20.70
2018-08-30T06:11:47.929Z,21.00
2018-08-30T06:12:47.915Z,20.60
2018-08-30T06:13:47.894Z,20.90
2018-08-30T06:14:47.882Z,20.00
2018-08-30T06:15:47.866Z,21.00
2018-08-30T06:16:47.852Z,19.80
2018-08-30T06:17:47.831Z,19.00
2018-08-30T06:18:47.817Z,18.10
2018-08-30T06:19:47.800Z,19.40
2018-08-30T06:20:47.784Z,18.90
2018-08-30T06:21:47.781Z,19.30
2018-08-30T06:22:47.763Z,18.70
2018-08-30T06:23:47.823Z,17.70
2018-08-30T06:24:47.724Z,18.90
2018-08-30T06:25:47.709Z,19.10
2018-08-30T06:26:47.807Z,18.10
2018-08-30T06:27:47.676Z,19.00
2018-08-30T06:28:47.659Z,18.10
2018-08-30T06:29:47.643Z,16.90
2018-08-30T06:30:47.631Z,17.50
2018-08-30T06:31:47.770Z,17.80
2018-08-30T06:32:47.640Z,18.00
2018-08-30T06:33:47.584Z,16.60
2018-08-30T06:34:47.655Z,16.80
2018-08-30T06:35:47.551Z,17.90
2018-08-30T06:36:47.542Z,17.00
2018-08-30T06:37:47.536Z,17.20
2018-08-30T06:38:47.574Z,16.90
2018-08-30T06:39:47.493Z,16.50
2018-08-30T06:40:47.475Z,17.70
2018-08-30T06:41:47.472Z,15.50
2018-08-30T06:42:47.453Z,15.70
2018-08-30T06:43:47.430Z,15.80
2018-08-30T06:44:47.414Z,15.70
2018-08-30T06:45:47.400Z,15.30
2018-08-30T06:46:47.383Z,15.20
2018-08-30T06:47:47.397Z,15.10
2018-08-30T06:48:47.376Z,15.10
2018-08-30T06:49:47.338Z,14.80
2018-08-30T06:50:47.370Z,14.60
2018-08-30T06:51:47.316Z,14.60
2018-08-30T06:52:47.292Z,14.60
2018-08-30T06:53:47.277Z,13.90
2018-08-30T06:54:47.261Z,14.50
2018-08-30T06:55:47.250Z,14.60
2018-08-30T06:56:47.251Z,13.70
2018-08-30T06:57:47.218Z,15.00
2018-08-30T06:58:47.205Z,13.70
2018-08-30T06:59:47.189Z,13.90
2018-08-30T07:00:47.171Z,13.80
2018-08-30T07:01:47.156Z,13.90
2018-08-30T07:02:47.143Z,13.60
2018-08-30T07:03:47.148Z,13.20
2018-08-30T07:04:47.112Z,12.90
2018-08-30T07:05:47.097Z,12.30
2018-08-30T07:06:47.232Z,12.70
2018-08-30T07:07:47.072Z,12.60
2018-08-30T07:08:47.062Z,11.80
2018-08-30T07:09:47.160Z,11.40
2018-08-30T07:10:47.022Z,11.90
2018-08-30T07:11:47.008Z,12.30
2018-08-30T07:12:47.011Z,12.20
2018-08-30T07:13:46.978Z,11.60
2018-08-30T07:14:46.965Z,13.60
2018-08-30T07:15:46.948Z,11.60
2018-08-30T07:16:46.935Z,11.40
2018-08-30T07:17:46.957Z,11.90
2018-08-30T07:18:46.901Z,11.40
2018-08-30T07:19:46.887Z,10.80
2018-08-30T07:20:46.874Z,11.70
2018-08-30T07:21:46.856Z,11.40
2018-08-30T07:22:46.848Z,11.90
2018-08-30T07:23:46.825Z,11.40
2018-08-30T07:24:46.811Z,11.50
2018-08-30T07:25:46.795Z,11.50
2018-08-30T07:26:46.794Z,10.60
2018-08-30T07:27:46.766Z,11.30
2018-08-30T07:28:46.752Z,11.20
2018-08-30T07:29:46.741Z,11.70
2018-08-30T07:30:46.735Z,11.00
2018-08-30T07:31:46.709Z,10.90
2018-08-30T07:32:46.700Z,11.70
2018-08-30T07:33:46.742Z,11.60
2018-08-30T07:34:46.741Z,11.40
2018-08-30T07:35:46.651Z,10.10
2018-08-30T07:36:46.647Z,11.20
2018-08-30T07:37:46.622Z,10.20
2018-08-30T07:38:46.610Z,10.90
2018-08-30T07:39:46.594Z,10.30
2018-08-30T07:40:46.580Z,9.70
2018-08-30T07:41:46.570Z,9.30
2018-08-30T07:42:46.556Z,9.20
2018-08-30T07:43:46.563Z,10.00
2018-08-30T07:44:46.529Z,9.60
2018-08-30T07:45:46.510Z,10.30
2018-08-30T07:46:46.494Z,9.70
2018-08-30T07:47:46.482Z,9.40
2018-08-30T07:48:46.468Z,9.70
2018-08-30T07:49:46.657Z,9.30
2018-08-30T07:50:46.483Z,8.80
2018-08-30T07:51:46.433Z,9.30
2018-08-30T07:52:46.441Z,8.80
2018-08-30T07:53:46.408Z,8.60
2018-08-30T07:54:46.389Z,9.60
2018-08-30T07:55:46.375Z,8.20
2018-08-30T07:56:46.363Z,8.60
2018-08-30T07:57:46.351Z,8.80
2018-08-30T07:58:46.336Z,9.10
2018-08-30T07:59:46.323Z,8.40
2018-08-30T08:00:46.310Z,8.10
2018-08-30T08:01:46.297Z,9.00
2018-08-30T08:02:46.283Z,8.50
2018-08-30T08:03:46.273Z,8.50
2018-08-30T08:04:46.257Z,8.40
2018-08-30T08:05:46.257Z,8.80
2018-08-30T08:06:46.236Z,8.20
2018-08-30T08:07:46.222Z,8.30
2018-08-30T08:08:46.235Z,7.90
2018-08-30T08:09:46.194Z,8.60
2018-08-30T08:10:46.196Z,8.30
2018-08-30T08:11:46.179Z,8.40
2018-08-30T08:12:46.203Z,7.60
2018-08-30T08:13:46.144Z,8.00
2018-08-30T08:14:46.140Z,7.80
2018-08-30T08:15:46.121Z,8.60
2018-08-30T08:16:46.105Z,8.40
2018-08-30T08:17:46.094Z,8.40
2018-08-30T08:18:46.081Z,8.10
2018-08-30T08:19:46.077Z,7.40
2018-08-30T08:20:46.055Z,8.30
2018-08-30T08:21:46.046Z,7.30
2018-08-30T08:22:46.035Z,7.50
2018-08-30T08:23:46.022Z,7.20
2018-08-30T08:24:46.026Z,7.30
2018-08-30T08:25:45.997Z,7.40
2018-08-30T08:26:46.005Z,7.20
2018-08-30T08:27:45.981Z,7.40
2018-08-30T08:28:45.961Z,8.00
2018-08-30T08:29:46.002Z,8.20
2018-08-30T08:30:45.939Z,7.40
2018-08-30T08:31:45.928Z,7.60
2018-08-30T08:32:45.913Z,7.00
2018-08-30T08:33:45.901Z,7.10
2018-08-30T08:34:45.897Z,7.00
2018-08-30T08:35:45.878Z,6.90
2018-08-30T08:36:45.871Z,6.90
2018-08-30T08:37:45.856Z,6.90
2018-08-30T08:38:45.843Z,7.20
2018-08-30T08:39:45.830Z,7.30
2018-08-30T08:40:45.820Z,7.80
2018-08-30T08:41:45.806Z,6.80
2018-08-30T08:42:45.793Z,7.10
2018-08-30T08:43:45.784Z,6.90
2018-08-30T08:44:45.770Z,6.90
2018-08-30T08:45:45.772Z,7.50
2018-08-30T08:46:45.750Z,7.00
2018-08-30T08:47:45.797Z,6.60
2018-08-30T08:48:45.762Z,7.20
2018-08-30T08:49:45.715Z,6.90
2018-08-30T08:50:45.701Z,7.00
2018-08-30T08:51:45.688Z,6.80
2018-08-30T08:52:45.678Z,7.30
2018-08-30T08:53:45.794Z,6.90
2018-08-30T08:54:45.653Z,6.50
2018-08-30T08:55:45.641Z,6.00
2018-08-30T08:56:45.627Z,6.10
2018-08-30T08:57:45.627Z,6.30
2018-08-30T08:58:45.661Z,7.00
2018-08-30T08:59:45.592Z,5.40
2018-08-30T09:00:45.581Z,5.60
2018-08-30T09:01:45.723Z,5.90
2018-08-30T09:02:45.557Z,6.10
2018-08-30T09:03:45.548Z,6.30
2018-08-30T09:04:45.544Z,6.20
2018-08-30T09:05:45.521Z,6.70
2018-08-30T09:06:45.527Z,6.20
2018-08-30T09:07:45.591Z,6.40
2018-08-30T09:08:45.493Z,6.60
2018-08-30T09:09:45.554Z,5.90
2018-08-30T09:10:45.464Z,6.10
2018-08-30T09:11:45.456Z,6.20
2018-08-30T09:12:45.491Z,6.20
2018-08-30T09:13:45.435Z,6.90
2018-08-30T09:14:45.637Z,6.50
2018-08-30T09:15:45.408Z,6.30
2018-08-30T09:16:45.396Z,6.10
2018-08-30T09:17:45.385Z,6.00
2018-08-30T09:18:45.375Z,6.70
2018-08-30T09:19:45.371Z,6.00
2018-08-30T09:20:45.355Z,6.00
2018-08-30T09:21:45.352Z,6.20
2018-08-30T09:22:45.335Z,6.30
2018-08-30T09:23:45.328Z,6.20
2018-08-30T09:24:45.920Z,6.40
2018-08-30T09:25:45.325Z,5.90
2018-08-30T09:26:45.316Z,6.80
2018-08-30T09:27:45.284Z,6.00
2018-08-30T09:28:45.376Z,6.20
2018-08-30T09:29:45.265Z,6.30
2018-08-30T09:30:45.256Z,7.20
2018-08-30T09:31:45.244Z,6.80
2018-08-30T09:32:45.234Z,12.00
2018-08-30T09:33:45.244Z,6.70
2018-08-30T09:34:45.214Z,6.50
2018-08-30T09:35:45.212Z,5.80
2018-08-30T09:36:45.190Z,6.10
2018-08-30T09:37:45.198Z,6.10
2018-08-30T09:38:45.173Z,6.10
2018-08-30T09:39:45.162Z,5.80
2018-08-30T09:40:45.153Z,6.50
2018-08-30T09:41:45.200Z,6.20
2018-08-30T09:42:45.133Z,6.60
2018-08-30T09:43:45.153Z,6.50
2018-08-30T09:44:45.208Z,6.10
2018-08-30T09:45:45.098Z,6.30
2018-08-30T09:46:45.088Z,6.80
2018-08-30T09:47:45.075Z,6.30
2018-08-30T09:48:45.066Z,6.20
2018-08-30T09:49:45.102Z,5.90
2018-08-30T09:50:45.052Z,6.80
2018-08-30T09:51:45.045Z,6.20
2018-08-30T09:52:45.023Z,6.30
2018-08-30T09:53:45.013Z,6.00
2018-08-30T09:54:45.004Z,6.00
2018-08-30T09:55:45.029Z,6.00
2018-08-30T09:56:45.093Z,5.60
2018-08-30T09:57:44.973Z,6.30
2018-08-30T09:58:44.963Z,5.30
2018-08-30T09:59:44.952Z,6.50
2018-08-30T10:00:44.952Z,5.50
2018-08-30T10:01:44.933Z,5.80
2018-08-30T10:02:45.045Z,6.00
2018-08-30T10:03:44.933Z,6.10
2018-08-30T10:04:44.964Z,5.50
2018-08-30T10:05:44.931Z,5.60
2018-08-30T10:06:44.886Z,6.40
2018-08-30T10:07:44.881Z,5.30
2018-08-30T10:08:44.871Z,6.90
2018-08-30T10:09:44.864Z,5.90
2018-08-30T10:10:44.851Z,5.80
2018-08-30T10:11:44.842Z,6.50
2018-08-30T10:12:44.839Z,5.50
2018-08-30T10:13:44.824Z,7.90
2018-08-30T10:14:44.819Z,6.30
2018-08-30T10:15:44.863Z,5.70
2018-08-30T10:16:44.804Z,5.50
2018-08-30T10:17:44.800Z,7.20
2018-08-30T10:18:44.930Z,5.60
2018-08-30T10:19:44.786Z,5.20
2018-08-30T10:20:44.787Z,5.40
2018-08-30T10:21:44.851Z,7.70
2018-08-30T10:22:44.765Z,5.60
2018-08-30T10:23:44.763Z,5.80
2018-08-30T10:24:44.769Z,5.70
2018-08-30T10:25:44.756Z,5.90
2018-08-30T10:26:44.755Z,5.30
2018-08-30T10:27:44.744Z,5.60
2018-08-30T10:28:44.745Z,5.70
2018-08-30T10:29:44.731Z,5.90
2018-08-30T10:30:44.732Z,6.20
2018-08-30T10:31:44.760Z,6.00
2018-08-30T10:32:44.722Z,6.30
2018-08-30T10:33:44.718Z,5.60
2018-08-30T10:34:44.712Z,5.60
2018-08-30T10:35:47.710Z,6.50
2018-08-30T10:36:44.714Z,6.30
2018-08-30T10:37:44.701Z,6.60
2018-08-30T10:38:44.817Z,6.60
2018-08-30T10:39:44.715Z,7.00
2018-08-30T10:40:44.706Z,6.50
2018-08-30T10:41:44.698Z,5.40
2018-08-30T10:42:44.686Z,5.10
2018-08-30T10:43:44.697Z,4.70
2018-08-30T10:44:44.676Z,5.00
2018-08-30T10:45:44.674Z,5.50
2018-08-30T10:46:44.672Z,5.00
2018-08-30T10:47:44.666Z,5.10
2018-08-30T10:48:44.663Z,4.90
2018-08-30T10:49:44.678Z,5.20
2018-08-30T10:50:44.667Z,5.50
2018-08-30T10:51:44.656Z,5.20
2018-08-30T10:52:44.651Z,5.10
2018-08-30T10:53:44.651Z,5.20
2018-08-30T10:54:44.702Z,4.80
2018-08-30T10:55:44.641Z,5.40
2018-08-30T10:56:44.633Z,5.00
2018-08-30T10:57:44.630Z,5.30
2018-08-30T10:58:44.635Z,5.20
2018-08-30T10:59:44.633Z,4.70
2018-08-30T11:00:44.616Z,5.50
2018-08-30T11:01:44.613Z,5.60
2018-08-30T11:02:44.610Z,5.30
2018-08-30T11:03:44.619Z,5.00
2018-08-30T11:04:44.602Z,5.40
2018-08-30T11:05:44.606Z,5.40
2018-08-30T11:06:44.595Z,5.80
2018-08-30T11:07:44.590Z,5.40
2018-08-30T11:08:44.593Z,4.90
2018-08-30T11:09:44.596Z,4.70
2018-08-30T11:10:44.589Z,5.40
2018-08-30T11:11:44.589Z,5.50
2018-08-30T11:12:44.704Z,12.10
2018-08-30T11:13:44.593Z,5.60
2018-08-30T11:14:44.569Z,5.30
2018-08-30T11:15:44.567Z,5.10
2018-08-30T11:16:44.562Z,5.10
2018-08-30T11:17:44.559Z,4.70
2018-08-30T11:18:44.558Z,4.80
2018-08-30T11:19:44.553Z,5.00
2018-08-30T11:20:44.548Z,4.90
2018-08-30T11:21:44.552Z,5.00
2018-08-30T11:22:44.675Z,4.90
2018-08-30T11:23:44.558Z,4.90
2018-08-30T11:24:44.533Z,4.80
2018-08-30T11:25:44.636Z,4.50
2018-08-30T11:26:44.524Z,4.60
2018-08-30T11:27:44.529Z,4.50
2018-08-30T11:28:44.516Z,4.90
2018-08-30T11:29:44.521Z,4.60
2018-08-30T11:30:44.510Z,4.70
2018-08-30T11:31:44.511Z,4.30
2018-08-30T11:32:44.497Z,4.60
2018-08-30T11:33:44.496Z,4.50
2018-08-30T11:34:44.496Z,4.40
2018-08-30T11:35:44.482Z,4.10
2018-08-30T11:36:44.484Z,4.90
2018-08-30T11:37:44.562Z,4.90
2018-08-30T11:38:44.558Z,4.70
2018-08-30T11:39:44.466Z,4.50
2018-08-30T11:40:44.467Z,4.60
2018-08-30T11:41:44.571Z,5.00
2018-08-30T11:42:44.474Z,4.20
2018-08-30T11:43:44.443Z,4.80
2018-08-30T11:44:44.446Z,4.80
2018-08-30T11:45:44.434Z,4.80
2018-08-30T11:46:44.433Z,4.90
2018-08-30T11:47:44.418Z,4.70
2018-08-30T11:48:44.422Z,4.50
2018-08-30T11:49:44.405Z,4.90
2018-08-30T11:50:44.398Z,4.20
2018-08-30T11:51:44.587Z,4.60
2018-08-30T11:52:44.416Z,4.70
2018-08-30T11:53:44.382Z,4.80
2018-08-30T11:54:44.415Z,4.10
2018-08-30T11:55:44.365Z,4.90
2018-08-30T11:56:44.357Z,5.00
2018-08-30T11:57:44.348Z,4.40
2018-08-30T11:58:44.343Z,4.40
2018-08-30T11:59:44.334Z,5.10
2018-08-30T12:00:44.335Z,4.70
2018-08-30T12:01:44.320Z,4.40
2018-08-30T12:02:44.312Z,4.50
2018-08-30T12:03:44.302Z,4.90
2018-08-30T12:04:44.291Z,4.40
2018-08-30T12:05:44.316Z,4.30
2018-08-30T12:06:44.314Z,4.20
2018-08-30T12:07:44.271Z,4.30
2018-08-30T12:08:44.258Z,4.40
2018-08-30T12:09:44.248Z,4.30
2018-08-30T12:10:44.319Z,4.10
2018-08-30T12:11:44.241Z,4.20
2018-08-30T12:12:44.381Z,18.30
2018-08-30T12:13:44.935Z,4.90
2018-08-30T12:14:44.205Z,4.30
2018-08-30T12:15:44.195Z,4.60
2018-08-30T12:16:44.190Z,5.10
2018-08-30T12:17:44.184Z,4.80
2018-08-30T12:18:44.222Z,4.50
2018-08-30T12:19:44.166Z,4.20
2018-08-30T12:20:44.279Z,4.10
2018-08-30T12:21:44.137Z,4.10
2018-08-30T12:22:44.133Z,4.10
2018-08-30T12:23:44.123Z,4.30
2018-08-30T12:24:44.111Z,4.80
2018-08-30T12:25:44.121Z,4.60
2018-08-30T12:26:44.104Z,4.50
2018-08-30T12:27:44.093Z,4.30
2018-08-30T12:28:44.173Z,4.00
2018-08-30T12:29:44.081Z,4.20
2018-08-30T12:30:44.069Z,4.20
2018-08-30T12:31:44.114Z,4.40
2018-08-30T12:32:44.063Z,4.10
2018-08-30T12:33:44.057Z,4.10
2018-08-30T12:34:44.061Z,4.90
2018-08-30T12:35:44.458Z,4.30
2018-08-30T12:36:44.036Z,5.00
2018-08-30T12:37:44.025Z,4.30
2018-08-30T12:38:43.986Z,4.40
2018-08-30T12:39:44.100Z,4.20
2018-08-30T12:40:43.963Z,4.30
2018-08-30T12:41:44.159Z,4.80
2018-08-30T12:42:44.069Z,4.20
2018-08-30T12:43:43.988Z,4.10
2018-08-30T12:44:43.993Z,3.90
2018-08-30T12:45:43.926Z,4.20
2018-08-30T12:46:43.948Z,4.10
2018-08-30T12:47:43.902Z,3.90
2018-08-30T12:48:43.930Z,3.90
2018-08-30T12:49:43.919Z,4.20
2018-08-30T12:50:44.015Z,4.20
2018-08-30T12:51:44.138Z,4.80
2018-08-30T12:52:43.958Z,5.10
2018-08-30T12:53:43.998Z,4.40
2018-08-30T12:54:43.946Z,4.90
2018-08-30T12:55:44.017Z,5.20
2018-08-30T12:56:43.924Z,4.30
2018-08-30T12:57:43.911Z,4.40
2018-08-30T12:58:43.946Z,3.80
2018-08-30T12:59:43.984Z,3.70
2018-08-30T13:00:43.894Z,3.80
2018-08-30T13:01:43.970Z,3.40
2018-08-30T13:02:44.037Z,3.20